createdAt,value
2022-09-16T00:00:34.682Z,1.90
2022-09-16T00:01:36.050Z,2.13
2022-09-16T00:02:40.111Z,2.10
2022-09-16T00:03:41.674Z,1.77
2022-09-16T00:04:43.035Z,1.90
2022-09-16T00:05:45.195Z,2.00
2022-09-16T00:06:46.501Z,1.67
2022-09-16T00:07:47.837Z,1.90
2022-09-16T00:08:49.506Z,1.77
2022-09-16T00:09:50.792Z,1.80
2022-09-16T00:10:52.338Z,1.80
2022-09-16T00:11:53.736Z,1.80
2022-09-16T00:12:55.012Z,2.00
2022-09-16T00:13:56.351Z,1.87
2022-09-16T00:14:57.657Z,1.80
2022-09-16T00:15:58.984Z,1.80
2022-09-16T00:17:00.340Z,1.87
2022-09-16T00:18:01.641Z,1.97
2022-09-16T00:19:03.524Z,1.70
2022-09-16T00:20:05.756Z,1.80
2022-09-16T00:21:08.215Z,1.80
2022-09-16T00:22:09.529Z,1.67
2022-09-16T00:23:10.864Z,1.87
2022-09-16T00:24:13.979Z,1.77
2022-09-16T00:25:15.315Z,1.93
2022-09-16T00:26:16.763Z,2.10
2022-09-16T00:27:18.108Z,1.83
2022-09-16T00:28:21.534Z,1.80
2022-09-16T00:29:22.864Z,1.70
2022-09-16T00:30:24.160Z,1.90
2022-09-16T00:31:25.523Z,1.80
2022-09-16T00:32:26.970Z,1.83
2022-09-16T00:33:28.751Z,1.80
2022-09-16T00:34:30.052Z,1.80
2022-09-16T00:35:31.342Z,2.33
2022-09-16T00:36:32.646Z,2.00
2022-09-16T00:37:34.351Z,1.80
2022-09-16T00:38:36.005Z,1.53
2022-09-16T00:39:37.621Z,1.90
2022-09-16T00:40:49.251Z,2.00
2022-09-16T00:41:50.620Z,1.73
2022-09-16T00:42:51.948Z,2.10
2022-09-16T00:43:57.934Z,2.10
2022-09-16T00:44:59.291Z,1.97
2022-09-16T00:46:03.038Z,1.80
2022-09-16T00:47:04.702Z,2.10
2022-09-16T00:48:07.379Z,2.20
2022-09-16T00:49:14.573Z,2.00
2022-09-16T00:50:21.453Z,2.10
2022-09-16T00:51:25.237Z,1.77
2022-09-16T00:52:27.293Z,2.20
2022-09-16T00:53:31.395Z,2.20
2022-09-16T00:54:34.589Z,1.97
2022-09-16T00:55:37.356Z,2.37
2022-09-16T00:56:40.970Z,2.00
2022-09-16T00:57:42.745Z,2.40
2022-09-16T00:59:08.334Z,2.07
2022-09-16T01:00:12.689Z,2.30
2022-09-16T01:01:14.250Z,2.30
2022-09-16T01:02:17.623Z,2.30
2022-09-16T01:03:19.443Z,1.87
2022-09-16T01:04:22.827Z,1.80
2022-09-16T01:05:26.524Z,1.80
2022-09-16T01:06:29.210Z,1.93
2022-09-16T01:07:42.529Z,2.00
2022-09-16T01:08:45.063Z,2.33
2022-09-16T01:09:46.695Z,1.90
2022-09-16T01:10:48.011Z,2.20
2022-09-16T01:11:49.429Z,2.00
2022-09-16T01:12:54.295Z,1.90
2022-09-16T01:14:15.939Z,2.30
2022-09-16T01:15:18.007Z,2.07
2022-09-16T01:16:19.325Z,1.90
2022-09-16T01:17:21.150Z,1.90
2022-09-16T01:18:29.626Z,2.10
2022-09-16T01:19:34.425Z,2.20
2022-09-16T01:20:35.954Z,1.87
2022-09-16T01:21:45.005Z,2.53
2022-09-16T01:22:46.287Z,2.00
2022-09-16T01:24:00.765Z,2.00
2022-09-16T01:25:08.346Z,2.33
2022-09-16T01:26:28.545Z,2.00
2022-09-16T01:27:48.535Z,2.17
2022-09-16T01:29:08.697Z,2.50
2022-09-16T01:30:09.960Z,2.33
2022-09-16T01:31:30.231Z,1.97
2022-09-16T01:32:41.920Z,1.90
2022-09-16T01:33:59.113Z,1.90
2022-09-16T01:35:20.564Z,2.20
2022-09-16T01:36:45.621Z,2.30
2022-09-16T01:38:02.014Z,2.07
2022-09-16T01:39:03.348Z,2.10
2022-09-16T01:40:10.813Z,2.23
2022-09-16T01:41:15.378Z,1.80
2022-09-16T01:42:22.811Z,2.30
2022-09-16T01:43:31.406Z,1.93
2022-09-16T01:44:40.006Z,2.03
2022-09-16T01:45:53.772Z,2.03
2022-09-16T01:47:14.152Z,1.90
2022-09-16T01:48:28.156Z,2.27
2022-09-16T01:49:53.283Z,2.30
2022-09-16T01:51:09.943Z,1.97
2022-09-16T01:52:16.791Z,1.97
2022-09-16T01:53:18.126Z,1.90
2022-09-16T01:54:40.000Z,2.20
2022-09-16T01:55:44.186Z,2.07
2022-09-16T01:56:54.889Z,2.03
2022-09-16T01:57:59.716Z,1.90
2022-09-16T01:59:09.641Z,2.03
2022-09-16T02:00:13.982Z,2.10
2022-09-16T02:01:23.522Z,2.00
2022-09-16T02:02:29.308Z,2.10
2022-09-16T02:03:34.225Z,2.00
2022-09-16T02:04:40.611Z,1.80
2022-09-16T02:05:51.894Z,2.00
2022-09-16T02:06:54.023Z,2.23
2022-09-16T02:07:58.744Z,2.27
2022-09-16T02:09:02.413Z,2.33
2022-09-16T02:10:24.742Z,2.23
2022-09-16T02:11:26.208Z,2.33
2022-09-16T02:12:30.619Z,2.60
2022-09-16T02:13:34.811Z,2.43
2022-09-16T02:14:40.237Z,2.53
2022-09-16T02:15:42.083Z,2.30
2022-09-16T02:17:05.388Z,2.20
2022-09-16T02:18:11.731Z,2.43
2022-09-16T02:19:17.583Z,2.73
2022-09-16T02:20:21.325Z,2.10
2022-09-16T02:21:24.959Z,2.10
2022-09-16T02:22:32.474Z,2.33
2022-09-16T02:23:37.447Z,2.20
2022-09-16T02:24:39.351Z,1.93
2022-09-16T02:25:42.307Z,2.40
2022-09-16T02:26:46.305Z,2.17
2022-09-16T02:27:49.247Z,2.87
2022-09-16T02:28:52.290Z,2.20
2022-09-16T02:29:59.060Z,2.20
2022-09-16T02:31:02.205Z,1.90
2022-09-16T02:32:06.225Z,2.17
2022-09-16T02:33:09.616Z,2.27
2022-09-16T02:34:19.714Z,2.10
2022-09-16T02:35:21.712Z,2.30
2022-09-16T02:36:25.088Z,2.20
2022-09-16T02:37:39.673Z,2.40
2022-09-16T02:38:42.242Z,2.00
2022-09-16T02:39:46.519Z,2.10
2022-09-16T02:40:52.433Z,1.87
2022-09-16T02:41:55.159Z,2.07
2022-09-16T02:42:57.687Z,2.13
2022-09-16T02:43:59.213Z,1.97
2022-09-16T02:45:01.508Z,2.23
2022-09-16T02:46:18.109Z,2.17
2022-09-16T02:47:36.710Z,2.33
2022-09-16T02:48:56.870Z,2.07
2022-09-16T02:50:04.401Z,2.10
2022-09-16T02:51:13.748Z,1.83
2022-09-16T02:52:24.591Z,2.33
2022-09-16T02:53:45.141Z,2.20
2022-09-16T02:54:46.445Z,2.50
2022-09-16T02:55:53.572Z,2.20
2022-09-16T02:56:55.656Z,2.20
2022-09-16T02:57:57.144Z,2.10
2022-09-16T02:58:58.877Z,2.10
2022-09-16T03:00:00.260Z,2.20
2022-09-16T03:01:02.340Z,2.00
2022-09-16T03:02:04.088Z,2.20
2022-09-16T03:03:05.806Z,2.00
2022-09-16T03:04:08.276Z,1.90
2022-09-16T03:05:09.693Z,2.47
2022-09-16T03:06:11.126Z,2.07
2022-09-16T03:07:12.605Z,2.20
2022-09-16T03:08:13.906Z,2.37
2022-09-16T03:09:16.111Z,2.60
2022-09-16T03:10:17.406Z,2.17
2022-09-16T03:11:28.034Z,2.20
2022-09-16T03:12:37.364Z,2.30
2022-09-16T03:13:55.052Z,2.47
2022-09-16T03:15:08.636Z,2.57
2022-09-16T03:16:31.314Z,2.27
2022-09-16T03:17:51.820Z,2.50
2022-09-16T03:19:03.528Z,2.73
2022-09-16T03:20:10.403Z,2.27
2022-09-16T03:21:25.518Z,2.40
2022-09-16T03:23:05.512Z,2.43
2022-09-16T03:24:06.820Z,2.77
2022-09-16T03:25:12.945Z,2.70
2022-09-16T03:26:19.121Z,2.50
2022-09-16T03:27:24.317Z,2.33
2022-09-16T03:28:27.209Z,2.37
2022-09-16T03:29:43.848Z,2.97
2022-09-16T03:30:55.918Z,2.50
2022-09-16T03:32:03.336Z,2.40
2022-09-16T03:33:06.499Z,2.60
2022-09-16T03:34:26.079Z,2.20
2022-09-16T03:35:30.237Z,2.30
2022-09-16T03:36:33.501Z,2.70
2022-09-16T03:37:35.913Z,2.37
2022-09-16T03:38:38.203Z,2.10
2022-09-16T03:39:39.709Z,2.30
2022-09-16T03:40:42.069Z,2.17
2022-09-16T03:41:43.972Z,2.03
2022-09-16T03:42:45.407Z,2.17
2022-09-16T03:44:00.264Z,1.83
2022-09-16T03:45:05.124Z,2.30
2022-09-16T03:46:10.433Z,2.10
2022-09-16T03:47:11.883Z,2.30
2022-09-16T03:48:13.786Z,2.37
2022-09-16T03:49:15.063Z,1.80
2022-09-16T03:50:17.241Z,2.00
2022-09-16T03:51:18.716Z,2.07
2022-09-16T03:52:20.065Z,2.30
2022-09-16T03:53:21.447Z,1.90
2022-09-16T03:54:22.894Z,2.10
2022-09-16T03:55:24.225Z,2.27
2022-09-16T03:56:25.598Z,2.00
2022-09-16T03:57:28.265Z,2.10
2022-09-16T03:58:29.554Z,2.33
2022-09-16T03:59:30.864Z,2.80
2022-09-16T04:00:33.042Z,2.40
2022-09-16T04:01:34.482Z,1.83
2022-09-16T04:02:35.937Z,2.40
2022-09-16T04:03:37.490Z,2.40
2022-09-16T04:04:38.868Z,2.20
2022-09-16T04:05:40.201Z,2.50
2022-09-16T04:06:41.595Z,2.20
2022-09-16T04:07:42.934Z,2.30
2022-09-16T04:08:44.958Z,2.07
2022-09-16T04:09:46.307Z,2.30
2022-09-16T04:10:57.780Z,2.30
2022-09-16T04:11:59.099Z,1.87
2022-09-16T04:13:00.425Z,1.90
2022-09-16T04:14:01.923Z,2.27
2022-09-16T04:15:03.601Z,2.07
2022-09-16T04:16:05.230Z,2.27
2022-09-16T04:17:06.751Z,2.40
2022-09-16T04:18:08.049Z,2.30
2022-09-16T04:19:10.468Z,2.17
2022-09-16T04:20:11.752Z,1.80
2022-09-16T04:21:13.089Z,2.10
2022-09-16T04:22:14.371Z,1.77
2022-09-16T04:23:15.675Z,2.00
2022-09-16T04:24:17.508Z,2.00
2022-09-16T04:25:18.880Z,2.20
2022-09-16T04:26:20.490Z,1.90
2022-09-16T04:27:21.882Z,2.30
2022-09-16T04:28:23.460Z,1.97
2022-09-16T04:29:24.760Z,2.17
2022-09-16T04:30:26.337Z,2.33
2022-09-16T04:31:27.737Z,2.10
2022-09-16T04:32:29.103Z,2.00
2022-09-16T04:33:31.317Z,2.47
2022-09-16T04:34:33.500Z,2.60
2022-09-16T04:35:34.802Z,2.50
2022-09-16T04:36:36.102Z,2.30
2022-09-16T04:37:37.474Z,2.70
2022-09-16T04:38:39.915Z,2.40
2022-09-16T04:39:41.554Z,2.13
2022-09-16T04:40:43.001Z,2.40
2022-09-16T04:41:44.326Z,2.57
2022-09-16T04:42:49.374Z,2.50
2022-09-16T04:43:52.580Z,2.70
2022-09-16T04:44:53.872Z,2.37
2022-09-16T04:45:55.484Z,2.97
2022-09-16T04:46:56.904Z,2.57
2022-09-16T04:47:58.425Z,2.40
2022-09-16T04:49:00.175Z,2.43
2022-09-16T04:50:01.485Z,2.80
2022-09-16T04:51:06.800Z,2.53
2022-09-16T04:52:08.095Z,2.77
2022-09-16T04:53:09.461Z,2.70
2022-09-16T04:54:12.218Z,2.37
2022-09-16T04:55:13.523Z,2.13
2022-09-16T04:56:16.409Z,2.63
2022-09-16T04:57:17.771Z,2.50
2022-09-16T04:58:19.084Z,2.40
2022-09-16T04:59:20.556Z,2.77
2022-09-16T05:00:22.037Z,2.80
2022-09-16T05:01:24.528Z,2.57
2022-09-16T05:02:26.161Z,2.60
2022-09-16T05:03:27.559Z,3.10
2022-09-16T05:04:28.953Z,2.53
2022-09-16T05:05:31.368Z,3.00
2022-09-16T05:06:36.428Z,2.70
2022-09-16T05:07:37.878Z,3.03
2022-09-16T05:08:39.329Z,3.00
2022-09-16T05:09:41.145Z,2.73
2022-09-16T05:10:42.423Z,3.10
2022-09-16T05:11:43.862Z,3.23
2022-09-16T05:12:49.307Z,2.80
2022-09-16T05:13:50.847Z,3.30
2022-09-16T05:14:52.129Z,2.93
2022-09-16T05:15:53.455Z,3.10
2022-09-16T05:16:54.799Z,3.20
2022-09-16T05:17:56.113Z,3.30
2022-09-16T05:18:58.210Z,3.10
2022-09-16T05:19:59.491Z,2.80
2022-09-16T05:21:01.570Z,3.03
2022-09-16T05:22:07.026Z,3.20
2022-09-16T05:23:08.749Z,3.20
2022-09-16T05:24:12.287Z,3.17
2022-09-16T05:25:13.658Z,3.10
2022-09-16T05:26:23.084Z,3.63
2022-09-16T05:27:27.836Z,3.40
2022-09-16T05:28:29.122Z,3.40
2022-09-16T05:29:30.495Z,3.40
2022-09-16T05:30:31.812Z,3.20
2022-09-16T05:31:34.679Z,3.53
2022-09-16T05:32:35.977Z,3.47
2022-09-16T05:33:37.954Z,3.43
2022-09-16T05:34:39.232Z,3.43
2022-09-16T05:35:41.805Z,3.17
2022-09-16T05:36:43.858Z,3.40
2022-09-16T05:37:45.171Z,3.37
2022-09-16T05:38:59.391Z,3.63
2022-09-16T05:40:08.193Z,3.53
2022-09-16T05:41:09.586Z,3.47
2022-09-16T05:42:10.880Z,3.27
2022-09-16T05:43:12.184Z,3.60
2022-09-16T05:44:13.935Z,3.50
2022-09-16T05:45:15.272Z,3.43
2022-09-16T05:46:21.036Z,3.20
2022-09-16T05:47:22.371Z,3.43
2022-09-16T05:48:24.268Z,3.83
2022-09-16T05:49:25.647Z,3.80
2022-09-16T05:50:27.824Z,3.43
2022-09-16T05:51:29.165Z,3.90
2022-09-16T05:52:30.957Z,3.13
2022-09-16T05:53:33.597Z,2.80
2022-09-16T05:54:34.988Z,3.60
2022-09-16T05:55:36.264Z,3.63
2022-09-16T05:56:37.587Z,3.80
2022-09-16T05:57:38.905Z,3.70
2022-09-16T05:58:40.774Z,3.70
2022-09-16T05:59:42.060Z,3.70
2022-09-16T06:00:43.352Z,3.93
2022-09-16T06:01:45.123Z,4.03
2022-09-16T06:02:47.128Z,3.80
2022-09-16T06:03:48.841Z,4.20
2022-09-16T06:04:50.230Z,3.67
2022-09-16T06:05:51.548Z,3.40
2022-09-16T06:06:52.828Z,3.50
2022-09-16T06:07:56.370Z,3.63
2022-09-16T06:08:58.704Z,3.43
2022-09-16T06:10:01.330Z,3.60
2022-09-16T06:11:03.567Z,3.47
2022-09-16T06:12:05.063Z,3.83
2022-09-16T06:13:06.373Z,3.40
2022-09-16T06:14:08.302Z,2.90
2022-09-16T06:15:10.129Z,3.70
2022-09-16T06:16:11.524Z,4.10
2022-09-16T06:17:12.877Z,3.30
2022-09-16T06:18:16.252Z,3.73
2022-09-16T06:19:18.180Z,3.57
2022-09-16T06:20:20.580Z,5.70
2022-09-16T06:21:22.820Z,6.27
2022-09-16T06:22:24.224Z,5.20
2022-09-16T06:23:25.549Z,3.97
2022-09-16T06:24:26.945Z,4.00
2022-09-16T06:25:28.320Z,4.37
2022-09-16T06:26:29.831Z,3.93
2022-09-16T06:27:31.618Z,3.87
2022-09-16T06:28:32.940Z,4.03
2022-09-16T06:29:34.325Z,4.00
2022-09-16T06:30:36.039Z,3.83
2022-09-16T06:31:37.948Z,3.93
2022-09-16T06:32:39.369Z,4.00
2022-09-16T06:33:41.116Z,4.00
2022-09-16T06:34:42.448Z,3.93
2022-09-16T06:35:43.725Z,3.93
2022-09-16T06:36:45.719Z,3.80
2022-09-16T06:37:47.269Z,3.80
2022-09-16T06:38:48.905Z,4.10
2022-09-16T06:39:50.237Z,3.93
2022-09-16T06:40:51.568Z,4.37
2022-09-16T06:41:52.904Z,4.57
2022-09-16T06:43:00.492Z,4.07
2022-09-16T06:44:02.195Z,4.03
2022-09-16T06:45:04.322Z,3.90
2022-09-16T06:46:10.102Z,4.43
2022-09-16T06:47:11.538Z,3.70
2022-09-16T06:48:12.826Z,4.10
2022-09-16T06:49:14.149Z,4.00
2022-09-16T06:50:15.824Z,4.00
2022-09-16T06:51:18.189Z,4.50
2022-09-16T06:52:19.505Z,4.20
2022-09-16T06:53:22.195Z,4.43
2022-09-16T06:54:23.456Z,4.70
2022-09-16T06:55:24.789Z,4.40
2022-09-16T06:56:26.668Z,3.63
2022-09-16T06:57:27.980Z,3.87
2022-09-16T06:58:31.985Z,4.00
2022-09-16T06:59:33.369Z,3.60
2022-09-16T07:00:34.880Z,3.07
2022-09-16T07:01:36.440Z,4.13
2022-09-16T07:02:38.147Z,3.70
2022-09-16T07:03:43.275Z,3.77
2022-09-16T07:04:44.673Z,3.90
2022-09-16T07:05:55.652Z,4.33
2022-09-16T07:07:09.105Z,4.50
2022-09-16T07:08:11.515Z,3.70
2022-09-16T07:09:12.854Z,4.13
2022-09-16T07:10:14.160Z,4.73
2022-09-16T07:11:19.531Z,4.30
2022-09-16T07:12:20.863Z,4.50
2022-09-16T07:13:22.214Z,3.67
2022-09-16T07:14:23.512Z,4.53
2022-09-16T07:15:24.876Z,3.80
2022-09-16T07:16:26.804Z,4.67
2022-09-16T07:17:28.469Z,3.70
2022-09-16T07:18:30.235Z,3.90
2022-09-16T07:19:31.567Z,3.87
2022-09-16T07:20:32.855Z,3.80
2022-09-16T07:21:34.141Z,4.80
2022-09-16T07:22:35.452Z,3.80
2022-09-16T07:23:37.371Z,4.33
2022-09-16T07:24:38.733Z,4.37
2022-09-16T07:25:40.022Z,4.77
2022-09-16T07:26:42.103Z,3.90
2022-09-16T07:27:43.414Z,4.57
2022-09-16T07:28:46.491Z,4.50
2022-09-16T07:29:47.793Z,3.67
2022-09-16T07:30:49.207Z,3.97
2022-09-16T07:31:50.519Z,3.87
2022-09-16T07:32:51.805Z,3.50
2022-09-16T07:33:53.979Z,3.43
2022-09-16T07:34:55.368Z,3.63
2022-09-16T07:36:00.161Z,3.57
2022-09-16T07:37:01.421Z,3.17
2022-09-16T07:38:02.819Z,3.13
2022-09-16T07:39:04.607Z,3.17
2022-09-16T07:40:06.298Z,2.93
2022-09-16T07:41:09.186Z,3.00
2022-09-16T07:42:10.641Z,3.43
2022-09-16T07:43:12.110Z,2.80
2022-09-16T07:44:14.348Z,3.13
2022-09-16T07:45:16.311Z,3.07
2022-09-16T07:46:18.206Z,3.20
2022-09-16T07:47:22.212Z,2.70
2022-09-16T07:48:23.827Z,2.73
2022-09-16T07:49:25.181Z,2.60
2022-09-16T07:50:26.492Z,2.93
2022-09-16T07:51:28.703Z,3.27
2022-09-16T07:52:30.338Z,2.90
2022-09-16T07:53:32.112Z,2.47
2022-09-16T07:54:33.457Z,2.40
2022-09-16T07:55:35.059Z,2.77
2022-09-16T07:56:37.577Z,3.40
2022-09-16T07:57:38.890Z,2.90
2022-09-16T07:58:40.903Z,2.37
2022-09-16T07:59:42.189Z,2.83
2022-09-16T08:00:43.523Z,2.73
2022-09-16T08:01:44.885Z,3.07
2022-09-16T08:02:46.236Z,3.07
2022-09-16T08:03:47.913Z,2.40
2022-09-16T08:04:49.269Z,2.80
2022-09-16T08:05:50.627Z,2.97
2022-09-16T08:06:51.977Z,2.90
2022-09-16T08:07:53.285Z,3.00
2022-09-16T08:08:55.891Z,2.67
2022-09-16T08:09:57.762Z,2.63
2022-09-16T08:11:00.072Z,3.53
2022-09-16T08:12:02.790Z,2.57
2022-09-16T08:13:04.944Z,2.93
2022-09-16T08:14:06.241Z,2.57
2022-09-16T08:15:07.999Z,2.20
2022-09-16T08:16:13.517Z,2.40
2022-09-16T08:17:14.889Z,2.50
2022-09-16T08:18:16.685Z,2.70
2022-09-16T08:19:19.217Z,2.73
2022-09-16T08:20:20.587Z,2.50
2022-09-16T08:21:23.137Z,2.30
2022-09-16T08:22:25.666Z,2.47
2022-09-16T08:23:27.007Z,2.13
2022-09-16T08:24:28.373Z,2.40
2022-09-16T08:25:29.795Z,2.10
2022-09-16T08:26:31.114Z,2.23
2022-09-16T08:27:35.261Z,2.10
2022-09-16T08:28:50.901Z,2.00
2022-09-16T08:29:59.526Z,2.47
2022-09-16T08:31:01.773Z,2.50
2022-09-16T08:32:03.112Z,2.40
2022-09-16T08:33:04.504Z,2.40
2022-09-16T08:34:06.145Z,2.53
2022-09-16T08:35:07.749Z,2.00
2022-09-16T08:36:22.711Z,2.10
2022-09-16T08:37:23.997Z,2.07
2022-09-16T08:38:25.645Z,1.90
2022-09-16T08:39:26.911Z,1.80
2022-09-16T08:40:32.287Z,2.10
2022-09-16T08:41:52.376Z,2.27
2022-09-16T08:42:53.654Z,2.00
2022-09-16T08:44:02.905Z,2.07
2022-09-16T08:45:22.754Z,2.00
2022-09-16T08:46:31.169Z,1.70
2022-09-16T08:47:42.631Z,1.93
2022-09-16T08:48:54.905Z,1.73
2022-09-16T08:49:58.498Z,1.73
2022-09-16T08:51:00.986Z,2.20
2022-09-16T08:52:10.816Z,1.60
2022-09-16T08:53:21.529Z,1.73
2022-09-16T08:54:26.038Z,1.80
2022-09-16T08:55:31.677Z,1.90
2022-09-16T08:56:35.839Z,2.00
2022-09-16T08:57:45.921Z,1.70
2022-09-16T08:58:49.484Z,1.87
2022-09-16T09:00:13.176Z,2.40
2022-09-16T09:01:18.149Z,2.10
2022-09-16T09:02:37.549Z,1.53
2022-09-16T09:03:40.962Z,1.90
2022-09-16T09:04:43.056Z,1.87
2022-09-16T09:05:44.342Z,1.57
2022-09-16T09:06:58.578Z,1.50
2022-09-16T09:08:06.075Z,1.80
2022-09-16T09:09:22.662Z,1.60
2022-09-16T09:10:42.185Z,1.73
2022-09-16T09:11:43.514Z,1.80
2022-09-16T09:13:09.498Z,2.10
2022-09-16T09:14:24.193Z,2.23
2022-09-16T09:15:29.341Z,1.70
2022-09-16T09:16:36.593Z,1.60
2022-09-16T09:17:48.277Z,1.60
2022-09-16T09:19:10.106Z,1.50
2022-09-16T09:20:20.891Z,1.30
2022-09-16T09:21:31.413Z,1.47
2022-09-16T09:22:47.698Z,1.43
2022-09-16T09:23:53.786Z,1.50
2022-09-16T09:25:08.913Z,1.83
2022-09-16T09:26:20.155Z,1.33
2022-09-16T09:27:24.266Z,1.80
2022-09-16T09:28:28.558Z,1.67
2022-09-16T09:29:33.833Z,1.20
2022-09-16T09:30:36.450Z,1.50
2022-09-16T09:31:43.685Z,1.53
2022-09-16T09:33:02.415Z,1.57
2022-09-16T09:34:11.415Z,1.30
2022-09-16T09:35:22.487Z,1.17
2022-09-16T09:36:42.501Z,1.50
2022-09-16T09:37:53.187Z,1.40
2022-09-16T09:39:03.452Z,1.50
2022-09-16T09:40:10.981Z,1.70
2022-09-16T09:41:14.542Z,1.20
2022-09-16T09:42:21.125Z,1.30
2022-09-16T09:43:27.591Z,1.57
2022-09-16T09:44:41.390Z,1.30
2022-09-16T09:46:01.842Z,1.27
2022-09-16T09:47:07.523Z,1.10
2022-09-16T09:48:14.755Z,1.00
2022-09-16T09:49:34.487Z,1.03
2022-09-16T09:50:41.885Z,1.50
2022-09-16T09:51:56.900Z,1.30
2022-09-16T09:52:58.182Z,1.43
2022-09-16T09:54:02.119Z,1.33
2022-09-16T09:55:16.179Z,1.50
2022-09-16T09:56:17.732Z,1.33
2022-09-16T09:57:26.806Z,1.17
2022-09-16T09:58:40.951Z,1.77
2022-09-16T10:00:00.746Z,1.30
2022-09-16T10:01:02.225Z,1.37
2022-09-16T10:02:03.673Z,1.13
2022-09-16T10:03:12.998Z,1.40
2022-09-16T10:04:15.343Z,1.43
2022-09-16T10:05:19.562Z,1.30
2022-09-16T10:06:25.071Z,1.40
2022-09-16T10:07:28.515Z,1.40
2022-09-16T10:08:43.807Z,1.27
2022-09-16T10:09:48.221Z,1.10
2022-09-16T10:10:51.364Z,1.20
2022-09-16T10:11:57.815Z,1.20
2022-09-16T10:13:13.007Z,1.20
2022-09-16T10:14:25.596Z,1.20
2022-09-16T10:15:28.219Z,1.20
2022-09-16T10:16:32.235Z,1.00
2022-09-16T10:17:33.827Z,1.10
2022-09-16T10:18:35.992Z,1.13
2022-09-16T10:19:40.424Z,1.10
2022-09-16T10:20:43.918Z,1.27
2022-09-16T10:21:48.474Z,0.90
2022-09-16T10:23:01.212Z,1.03
2022-09-16T10:24:02.510Z,1.20
2022-09-16T10:25:07.904Z,0.90
2022-09-16T10:26:25.624Z,0.90
2022-09-16T10:27:29.427Z,0.82
2022-09-16T10:28:30.939Z,1.20
2022-09-16T10:29:32.241Z,1.20
2022-09-16T10:30:45.188Z,1.10
2022-09-16T10:31:49.893Z,0.90
2022-09-16T10:32:54.327Z,1.20
2022-09-16T10:33:55.978Z,0.70
2022-09-16T10:34:57.493Z,0.93
2022-09-16T10:36:21.848Z,0.80
2022-09-16T10:37:23.461Z,0.90
2022-09-16T10:38:27.170Z,0.90
2022-09-16T10:39:29.352Z,1.00
2022-09-16T10:40:31.471Z,0.80
2022-09-16T10:41:34.245Z,0.90
2022-09-16T10:42:35.772Z,1.10
2022-09-16T10:43:38.701Z,1.10
2022-09-16T10:44:41.856Z,0.90
2022-09-16T10:45:47.361Z,0.87
2022-09-16T10:46:53.124Z,0.83
2022-09-16T10:47:56.120Z,0.90
2022-09-16T10:48:59.960Z,0.73
2022-09-16T10:50:04.601Z,0.70
2022-09-16T10:51:06.298Z,1.00
2022-09-16T10:52:27.843Z,0.70
2022-09-16T10:53:40.987Z,1.13
2022-09-16T10:54:45.053Z,1.00
2022-09-16T10:55:55.910Z,0.60
2022-09-16T10:56:57.339Z,1.13
2022-09-16T10:58:09.105Z,0.82
2022-09-16T10:59:11.621Z,0.70
2022-09-16T11:00:13.563Z,0.60
2022-09-16T11:01:26.044Z,0.90
2022-09-16T11:02:40.044Z,0.80
2022-09-16T11:03:47.556Z,0.83
2022-09-16T11:04:57.233Z,0.87
2022-09-16T11:06:17.468Z,1.07
2022-09-16T11:07:34.421Z,1.00
2022-09-16T11:08:44.400Z,0.85
2022-09-16T11:09:50.096Z,1.00
2022-09-16T11:11:11.912Z,1.00
2022-09-16T11:12:32.249Z,0.60
2022-09-16T11:13:36.633Z,0.65
2022-09-16T11:14:56.872Z,0.90
2022-09-16T11:16:01.313Z,1.00
2022-09-16T11:17:21.261Z,1.00
2022-09-16T11:18:25.663Z,1.33
2022-09-16T11:19:32.982Z,0.90
2022-09-16T11:20:44.305Z,0.88
2022-09-16T11:21:55.838Z,0.85
2022-09-16T11:22:59.965Z,0.80
2022-09-16T11:24:08.193Z,0.75
2022-09-16T11:25:30.671Z,0.88
2022-09-16T11:26:54.261Z,0.82
2022-09-16T11:28:01.614Z,0.80
2022-09-16T11:29:15.216Z,1.13
2022-09-16T11:30:21.802Z,0.93
2022-09-16T11:31:23.214Z,0.85
2022-09-16T11:32:35.146Z,0.80
2022-09-16T11:33:40.416Z,0.70
2022-09-16T11:35:00.429Z,0.90
2022-09-16T11:36:17.109Z,0.80
2022-09-16T11:37:26.184Z,1.30
2022-09-16T11:38:42.447Z,0.98
2022-09-16T11:39:46.798Z,0.77
2022-09-16T11:41:03.652Z,0.60
2022-09-16T11:42:11.635Z,1.00
2022-09-16T11:43:25.223Z,0.88
2022-09-16T11:44:26.533Z,0.90
2022-09-16T11:45:46.800Z,0.75
2022-09-16T11:46:51.137Z,1.10
2022-09-16T11:47:52.495Z,0.80
2022-09-16T11:49:03.018Z,0.95
2022-09-16T11:50:09.340Z,0.90
2022-09-16T11:51:16.704Z,1.00
2022-09-16T11:52:31.972Z,1.00
2022-09-16T11:53:44.545Z,0.73
2022-09-16T11:55:01.746Z,0.83
2022-09-16T11:56:06.191Z,0.80
2022-09-16T11:57:13.254Z,0.80
2022-09-16T11:58:31.686Z,0.60
2022-09-16T11:59:37.346Z,0.83
2022-09-16T12:00:39.219Z,0.73
2022-09-16T12:01:50.045Z,0.87
2022-09-16T12:03:10.242Z,0.90
2022-09-16T12:04:26.907Z,0.60
2022-09-16T12:05:36.286Z,1.08
2022-09-16T12:06:44.698Z,0.70
2022-09-16T12:08:02.377Z,0.93
2022-09-16T12:09:07.785Z,0.70
2022-09-16T12:10:18.990Z,0.80
2022-09-16T12:11:32.893Z,0.98
2022-09-16T12:12:39.380Z,0.80
2022-09-16T12:13:44.667Z,0.88
2022-09-16T12:14:51.480Z,0.80
2022-09-16T12:15:54.275Z,0.80
2022-09-16T12:17:07.751Z,0.95
2022-09-16T12:18:12.099Z,0.93
2022-09-16T12:19:17.720Z,0.80
2022-09-16T12:20:22.007Z,0.90
2022-09-16T12:21:32.574Z,0.80
2022-09-16T12:22:42.881Z,0.70
2022-09-16T12:23:45.921Z,0.90
2022-09-16T12:25:03.923Z,0.80
2022-09-16T12:26:18.097Z,1.23
2022-09-16T12:27:52.438Z,0.90
2022-09-16T12:29:03.564Z,0.82
2022-09-16T12:30:06.385Z,1.00
2022-09-16T12:31:10.927Z,0.80
2022-09-16T12:32:19.642Z,0.75
2022-09-16T12:33:27.755Z,1.15
2022-09-16T12:34:31.923Z,0.95
2022-09-16T12:35:36.709Z,0.90
2022-09-16T12:36:39.788Z,1.05
2022-09-16T12:37:48.994Z,0.90
2022-09-16T12:38:50.545Z,1.30
2022-09-16T12:39:52.043Z,1.25
2022-09-16T12:40:59.516Z,1.00
2022-09-16T12:42:21.095Z,0.70
2022-09-16T12:43:22.418Z,0.90
2022-09-16T12:44:33.995Z,0.90
2022-09-16T12:45:54.815Z,0.87
2022-09-16T12:46:59.181Z,0.90
2022-09-16T12:48:00.453Z,0.50
2022-09-16T12:49:20.663Z,0.68
2022-09-16T12:50:25.204Z,0.80
2022-09-16T12:51:50.251Z,0.60
2022-09-16T12:52:51.953Z,0.70
2022-09-16T12:54:02.465Z,0.90
2022-09-16T12:55:23.155Z,0.83
2022-09-16T12:56:31.196Z,0.90
2022-09-16T12:57:51.366Z,0.68
2022-09-16T12:59:08.011Z,0.83
2022-09-16T13:00:23.111Z,1.10
2022-09-16T13:01:26.075Z,0.70
2022-09-16T13:02:29.648Z,0.80
2022-09-16T13:03:32.684Z,0.60
2022-09-16T13:04:38.791Z,0.83
2022-09-16T13:05:40.226Z,0.73
2022-09-16T13:06:46.061Z,0.77
2022-09-16T13:07:52.068Z,0.73
2022-09-16T13:08:54.140Z,0.70
2022-09-16T13:10:14.401Z,0.60
2022-09-16T13:12:09.530Z,0.70
2022-09-16T13:12:44.075Z,0.88
2022-09-16T13:13:47.615Z,0.80
2022-09-16T13:14:56.796Z,0.75
2022-09-16T13:15:59.797Z,0.60
2022-09-16T13:17:02.444Z,0.75
2022-09-16T13:18:21.869Z,0.60
2022-09-16T13:19:26.136Z,0.90
2022-09-16T13:20:35.689Z,0.85
2022-09-16T13:21:44.437Z,0.90
2022-09-16T13:22:47.197Z,0.80
2022-09-16T13:23:52.052Z,0.68
2022-09-16T13:25:18.343Z,0.90
2022-09-16T13:26:19.638Z,0.80
2022-09-16T13:27:23.991Z,0.98
2022-09-16T13:28:28.049Z,1.02
2022-09-16T13:29:29.380Z,0.70
2022-09-16T13:30:36.098Z,0.90
2022-09-16T13:31:46.460Z,0.80
2022-09-16T13:32:51.201Z,0.90
2022-09-16T13:33:57.742Z,0.70
2022-09-16T13:35:22.497Z,0.80
2022-09-16T13:36:24.402Z,0.73
2022-09-16T13:37:26.825Z,0.98
2022-09-16T13:38:36.866Z,1.00
2022-09-16T13:39:38.464Z,0.77
2022-09-16T13:40:39.851Z,1.02
2022-09-16T13:41:45.483Z,0.85
2022-09-16T13:42:49.731Z,1.00
2022-09-16T13:43:52.709Z,0.80
2022-09-16T13:44:54.668Z,1.00
2022-09-16T13:46:05.298Z,0.88
2022-09-16T13:47:14.469Z,0.82
2022-09-16T13:48:18.911Z,0.70
2022-09-16T13:49:27.179Z,0.77
2022-09-16T13:50:29.684Z,0.70
2022-09-16T13:51:36.246Z,0.98
2022-09-16T13:52:42.661Z,0.73
2022-09-16T13:53:49.278Z,0.80
2022-09-16T13:55:10.077Z,1.00
2022-09-16T13:56:24.898Z,0.60
2022-09-16T13:57:26.371Z,0.77
2022-09-16T13:58:31.038Z,0.90
2022-09-16T13:59:51.610Z,0.70
2022-09-16T14:01:11.405Z,0.63
2022-09-16T14:02:13.210Z,0.73
2022-09-16T14:03:34.187Z,0.77
2022-09-16T14:04:36.065Z,0.60
2022-09-16T14:05:47.641Z,1.00
2022-09-16T14:07:07.891Z,0.90
2022-09-16T14:08:15.731Z,0.90
2022-09-16T14:09:25.035Z,0.90
2022-09-16T14:10:45.710Z,0.70
2022-09-16T14:11:59.003Z,0.60
2022-09-16T14:13:14.052Z,0.90
2022-09-16T14:14:43.250Z,0.98
2022-09-16T14:15:43.668Z,0.93
2022-09-16T14:16:46.735Z,0.90
2022-09-16T14:17:51.648Z,0.60
2022-09-16T14:19:14.737Z,0.53
2022-09-16T14:20:19.990Z,0.67
2022-09-16T14:21:23.313Z,0.70
2022-09-16T14:22:27.613Z,0.93
2022-09-16T14:23:30.196Z,0.93
2022-09-16T14:24:42.304Z,0.67
2022-09-16T14:25:44.111Z,0.70
2022-09-16T14:26:53.390Z,0.83
2022-09-16T14:28:16.021Z,0.50
2022-09-16T14:29:17.825Z,0.60
2022-09-16T14:30:20.118Z,0.60
2022-09-16T14:31:22.739Z,0.50
2022-09-16T14:32:29.230Z,0.63
2022-09-16T14:33:32.571Z,0.57
2022-09-16T14:34:36.401Z,0.70
2022-09-16T14:35:48.369Z,0.60
2022-09-16T14:36:50.084Z,0.43